createdAt,value
2023-04-02T00:00:36.900Z,8.20
2023-04-02T00:03:23.690Z,5.90
2023-04-02T00:05:50.698Z,10.60
2023-04-02T00:08:41.112Z,6.60
2023-04-02T00:11:08.806Z,9.40
2023-04-02T00:13:53.532Z,9.50
2023-04-02T00:16:23.598Z,8.10
2023-04-02T00:18:55.065Z,7.50
2023-04-02T00:21:26.938Z,7.60
2023-04-02T00:23:55.591Z,6.70
2023-04-02T00:26:36.226Z,6.60
2023-04-02T00:29:05.639Z,7.10
2023-04-02T00:31:34.247Z,8.70
2023-04-02T00:34:04.079Z,6.90
2023-04-02T00:36:36.021Z,10.40
2023-04-02T00:39:07.911Z,7.70
2023-04-02T00:41:38.185Z,9.30
2023-04-02T00:44:05.497Z,7.70
2023-04-02T00:46:49.086Z,8.00
2023-04-02T00:49:21.557Z,8.60
2023-04-02T00:51:53.542Z,7.10
2023-04-02T00:54:22.826Z,8.40
2023-04-02T00:56:53.403Z,7.30
2023-04-02T00:59:48.519Z,7.50
2023-04-02T01:02:16.883Z,7.60
2023-04-02T01:05:05.014Z,5.90
2023-04-02T01:08:13.620Z,8.20
2023-04-02T01:11:18.504Z,7.30
2023-04-02T01:13:51.999Z,8.70
2023-04-02T01:16:30.692Z,7.20
2023-04-02T01:19:26.763Z,6.10
2023-04-02T01:22:09.042Z,7.50
2023-04-02T01:24:38.725Z,11.60
2023-04-02T01:27:15.922Z,9.50
2023-04-02T01:29:55.161Z,9.80
2023-04-02T01:32:23.616Z,8.70
2023-04-02T01:34:51.961Z,8.70
2023-04-02T01:37:57.262Z,9.40
2023-04-02T01:40:40.144Z,9.70
2023-04-02T01:43:12.894Z,12.20
2023-04-02T01:45:40.043Z,9.30
2023-04-02T01:48:33.047Z,11.60
2023-04-02T01:51:04.933Z,9.00
2023-04-02T01:53:31.762Z,8.50
2023-04-02T01:56:01.029Z,7.10
2023-04-02T01:58:31.221Z,7.60
2023-04-02T02:01:02.409Z,10.30
2023-04-02T02:03:29.788Z,7.00
2023-04-02T02:05:57.662Z,7.80
2023-04-02T02:08:31.196Z,8.60
2023-04-02T02:10:58.189Z,10.80
2023-04-02T02:13:25.007Z,6.80
2023-04-02T02:15:51.870Z,8.70
2023-04-02T02:18:25.755Z,8.20
2023-04-02T02:20:53.556Z,6.20
2023-04-02T02:23:21.011Z,8.00
2023-04-02T02:25:47.911Z,6.60
2023-04-02T02:28:30.250Z,6.80
2023-04-02T02:31:01.457Z,7.60
2023-04-02T02:33:30.630Z,8.20
2023-04-02T02:36:10.021Z,7.00
2023-04-02T02:38:57.095Z,7.00
2023-04-02T02:41:40.910Z,7.40
2023-04-02T02:44:33.741Z,5.80
2023-04-02T02:47:04.420Z,5.70
2023-04-02T02:49:34.811Z,7.00
2023-04-02T02:52:14.345Z,8.00
2023-04-02T02:54:46.160Z,5.30
2023-04-02T02:57:28.892Z,6.50
2023-04-02T02:59:58.519Z,6.10
2023-04-02T03:02:27.737Z,7.50
2023-04-02T03:04:56.052Z,4.70
2023-04-02T03:07:26.186Z,7.00
2023-04-02T03:10:05.122Z,5.40
2023-04-02T03:12:50.891Z,6.60
2023-04-02T03:15:55.279Z,5.00
2023-04-02T03:18:40.514Z,7.70
2023-04-02T03:21:35.479Z,5.80
2023-04-02T03:24:23.741Z,8.40
2023-04-02T03:27:01.199Z,9.70
2023-04-02T03:29:33.738Z,5.30
2023-04-02T03:32:07.297Z,5.10
2023-04-02T03:34:40.627Z,5.20
2023-04-02T03:37:13.940Z,6.80
2023-04-02T03:39:44.479Z,5.30
2023-04-02T03:42:28.527Z,6.30
2023-04-02T03:45:13.930Z,4.60
2023-04-02T03:48:26.037Z,7.40
2023-04-02T03:51:17.437Z,5.00
2023-04-02T03:53:45.189Z,6.10
2023-04-02T03:56:27.955Z,5.90
2023-04-02T03:59:14.812Z,5.80
2023-04-02T04:01:53.555Z,5.30
2023-04-02T04:04:21.604Z,7.20
2023-04-02T04:06:51.812Z,9.00
2023-04-02T04:09:26.912Z,8.90
2023-04-02T04:12:14.304Z,6.70
2023-04-02T04:14:48.312Z,5.20
2023-04-02T04:17:24.043Z,7.70
2023-04-02T04:19:57.412Z,7.00
2023-04-02T04:22:29.780Z,5.80
2023-04-02T04:24:58.557Z,7.80
2023-04-02T04:27:42.167Z,5.70
2023-04-02T04:30:17.836Z,6.20
2023-04-02T04:32:57.605Z,8.10
2023-04-02T04:35:29.224Z,7.50
2023-04-02T04:38:07.226Z,5.60
2023-04-02T04:40:37.410Z,6.10
2023-04-02T04:43:10.595Z,6.10
2023-04-02T04:46:12.560Z,9.40
2023-04-02T04:48:52.960Z,4.80
2023-04-02T04:51:26.699Z,4.40
2023-04-02T04:53:55.253Z,5.60
2023-04-02T04:56:26.434Z,6.90
2023-04-02T04:59:00.454Z,4.80
2023-04-02T05:01:29.766Z,4.60
2023-04-02T05:04:00.802Z,5.80
2023-04-02T05:06:39.447Z,4.30
2023-04-02T05:09:21.206Z,5.90
2023-04-02T05:11:59.577Z,5.50
2023-04-02T05:14:36.458Z,5.40
2023-04-02T05:17:33.065Z,7.20
2023-04-02T05:20:23.003Z,6.20
2023-04-02T05:23:05.654Z,7.90
2023-04-02T05:25:33.073Z,7.80
2023-04-02T05:28:22.534Z,6.60
2023-04-02T05:30:53.717Z,6.40
2023-04-02T05:33:28.171Z,8.70
2023-04-02T05:36:07.032Z,6.60
2023-04-02T05:38:39.490Z,5.80
2023-04-02T05:41:26.451Z,5.70
2023-04-02T05:44:19.953Z,9.30
2023-04-02T05:46:55.594Z,6.90
2023-04-02T05:49:28.471Z,7.40
2023-04-02T05:52:00.363Z,6.50
2023-04-02T05:54:33.877Z,5.60
2023-04-02T05:57:06.913Z,7.30
2023-04-02T05:59:39.051Z,8.50
2023-04-02T06:02:24.933Z,6.90
2023-04-02T06:05:12.102Z,7.40
2023-04-02T06:08:03.008Z,7.10
2023-04-02T06:13:06.365Z,6.40
2023-04-02T06:15:36.004Z,6.10
2023-04-02T06:18:02.938Z,8.10
2023-04-02T06:20:29.657Z,6.60
2023-04-02T06:23:06.326Z,10.80
2023-04-02T06:25:42.549Z,8.10
2023-04-02T06:28:16.657Z,9.50
2023-04-02T06:30:43.870Z,8.90
2023-04-02T06:33:15.131Z,8.10
2023-04-02T06:35:42.747Z,10.30
2023-04-02T06:38:21.093Z,7.30
2023-04-02T06:40:59.420Z,8.50
2023-04-02T06:43:38.810Z,6.50
2023-04-02T06:46:17.619Z,6.60
2023-04-02T06:48:47.196Z,8.00
2023-04-02T06:51:17.336Z,7.80
2023-04-02T06:53:47.364Z,7.60
2023-04-02T06:56:42.781Z,8.20
2023-04-02T06:59:12.188Z,7.00
2023-04-02T07:01:44.749Z,7.90
2023-04-02T07:04:11.937Z,8.50
2023-04-02T07:06:38.687Z,8.60
2023-04-02T07:09:06.308Z,5.90
2023-04-02T07:11:33.549Z,7.60
2023-04-02T07:14:00.203Z,6.50
2023-04-02T07:16:28.829Z,8.10
2023-04-02T07:18:58.039Z,6.40
2023-04-02T07:21:26.244Z,9.50
2023-04-02T07:23:53.652Z,7.60
2023-04-02T07:26:24.943Z,8.10
2023-04-02T07:28:51.948Z,8.40
2023-04-02T07:31:22.974Z,8.50
2023-04-02T07:33:50.572Z,8.70
2023-04-02T07:36:20.374Z,8.50
2023-04-02T07:38:47.629Z,8.30
2023-04-02T07:41:15.401Z,7.90
2023-04-02T07:43:42.807Z,5.90
2023-04-02T07:46:11.048Z,6.10
2023-04-02T07:48:37.866Z,7.10
2023-04-02T07:51:05.513Z,9.90
2023-04-02T07:53:34.200Z,6.90
2023-04-02T07:56:02.464Z,6.20
2023-04-02T07:58:30.941Z,5.50
2023-04-02T08:00:59.135Z,5.60
2023-04-02T08:03:26.344Z,6.90
2023-04-02T08:05:57.788Z,7.10
2023-04-02T08:08:25.403Z,6.90
2023-04-02T08:10:52.167Z,9.40
2023-04-02T08:13:19.133Z,7.00
2023-04-02T08:15:46.246Z,7.20
2023-04-02T08:18:12.961Z,6.60
2023-04-02T08:20:39.661Z,6.30
2023-04-02T08:23:14.828Z,7.70
2023-04-02T08:25:41.752Z,7.70
2023-04-02T08:28:08.543Z,5.80
2023-04-02T08:30:36.059Z,5.40
2023-04-02T08:33:03.384Z,5.40
2023-04-02T08:35:30.425Z,6.20
2023-04-02T08:37:57.156Z,6.60
2023-04-02T08:40:29.229Z,7.50
2023-04-02T08:43:12.629Z,8.40
2023-04-02T08:46:00.759Z,8.40
2023-04-02T08:48:29.219Z,7.30
2023-04-02T08:50:58.451Z,6.90
2023-04-02T08:53:30.705Z,7.30
2023-04-02T08:56:05.034Z,6.80
2023-04-02T08:58:42.359Z,7.50
2023-04-02T09:01:41.850Z,7.00
2023-04-02T09:04:18.211Z,6.70
2023-04-02T09:06:45.894Z,6.70
2023-04-02T09:09:13.944Z,8.30
2023-04-02T09:11:47.186Z,7.00
2023-04-02T09:14:44.741Z,6.30
2023-04-02T09:17:21.229Z,6.70
2023-04-02T09:20:02.891Z,7.40
2023-04-02T09:22:31.817Z,6.50
2023-04-02T09:25:03.737Z,8.90
2023-04-02T09:27:33.841Z,6.20
2023-04-02T09:30:13.487Z,6.50
2023-04-02T09:33:01.991Z,6.30
2023-04-02T09:35:31.975Z,5.80
2023-04-02T09:38:15.773Z,5.30
2023-04-02T09:40:46.191Z,5.90
2023-04-02T09:43:16.226Z,7.60
2023-04-02T09:45:54.369Z,4.90
2023-04-02T09:48:47.177Z,5.30
2023-04-02T09:51:38.676Z,5.30
2023-04-02T09:54:09.576Z,4.20
2023-04-02T09:56:38.690Z,6.20
2023-04-02T09:59:06.911Z,7.00
2023-04-02T10:01:39.551Z,4.90
2023-04-02T10:04:37.236Z,6.90
2023-04-02T10:07:06.048Z,4.90
2023-04-02T10:09:35.032Z,5.10
2023-04-02T10:12:03.762Z,4.90
2023-04-02T10:14:44.412Z,3.50
2023-04-02T10:17:24.140Z,5.90
2023-04-02T10:19:58.281Z,5.30
2023-04-02T10:22:27.751Z,5.00
2023-04-02T10:24:54.458Z,8.60
2023-04-02T10:27:30.140Z,5.90
2023-04-02T10:30:19.149Z,5.50
2023-04-02T10:32:59.032Z,5.60
2023-04-02T10:36:01.061Z,7.20
2023-04-02T10:38:41.983Z,6.60
2023-04-02T10:41:32.160Z,4.20
2023-04-02T10:44:23.553Z,6.50
2023-04-02T10:46:56.736Z,6.10
2023-04-02T10:49:38.680Z,6.90
2023-04-02T10:52:23.483Z,6.80
2023-04-02T10:54:53.280Z,4.90
2023-04-02T10:57:40.758Z,4.80
2023-04-02T11:00:16.008Z,4.90
2023-04-02T11:02:52.309Z,4.80
2023-04-02T11:05:52.988Z,3.90
2023-04-02T11:08:22.607Z,5.00
2023-04-02T11:10:55.916Z,5.10
2023-04-02T11:13:31.088Z,4.30
2023-04-02T11:15:57.984Z,4.80
2023-04-02T11:18:35.164Z,3.90
2023-04-02T11:21:03.407Z,4.30
2023-04-02T11:23:32.951Z,4.50
2023-04-02T11:26:33.633Z,6.80
2023-04-02T11:29:06.243Z,4.30
2023-04-02T11:31:33.953Z,7.40
2023-04-02T11:34:19.242Z,5.90
2023-04-02T11:36:54.613Z,4.40
2023-04-02T11:39:53.536Z,5.10
2023-04-02T11:42:27.535Z,2.70
2023-04-02T11:44:55.760Z,3.30
2023-04-02T11:47:24.939Z,4.10
2023-04-02T11:49:54.867Z,5.50
2023-04-02T11:52:43.641Z,3.10
2023-04-02T11:55:30.185Z,3.00
2023-04-02T11:58:24.851Z,6.70
2023-04-02T12:01:14.363Z,4.20
2023-04-02T12:04:22.109Z,4.40
2023-04-02T12:06:51.573Z,2.60
2023-04-02T12:09:28.785Z,3.90
2023-04-02T12:11:58.576Z,3.90
2023-04-02T12:14:37.576Z,4.40
2023-04-02T12:17:29.711Z,4.20
2023-04-02T12:20:22.190Z,2.40
2023-04-02T12:22:54.458Z,3.80
2023-04-02T12:25:26.459Z,3.60
2023-04-02T12:28:17.344Z,3.40
2023-04-02T12:33:33.131Z,5.10
2023-04-02T12:36:01.623Z,3.70
2023-04-02T12:38:38.687Z,3.20
2023-04-02T12:41:18.299Z,5.20
2023-04-02T12:43:45.117Z,6.40
2023-04-02T12:46:13.970Z,4.80
2023-04-02T12:48:40.832Z,3.90
2023-04-02T12:51:07.651Z,3.60
2023-04-02T12:53:37.082Z,3.50
2023-04-02T12:56:05.102Z,2.20
2023-04-02T12:58:35.687Z,1.90
2023-04-02T13:04:09.295Z,3.50
2023-04-02T13:06:36.502Z,3.20
2023-04-02T13:09:06.458Z,3.40
2023-04-02T13:11:40.874Z,5.40
2023-04-02T13:14:16.205Z,3.30
2023-04-02T13:16:43.286Z,3.00
2023-04-02T13:19:28.372Z,2.80
2023-04-02T13:21:56.760Z,2.70
2023-04-02T13:24:28.552Z,5.90
2023-04-02T13:27:00.579Z,3.90
2023-04-02T13:29:27.460Z,2.10
2023-04-02T13:31:58.560Z,2.50
2023-04-02T13:34:25.948Z,3.50
2023-04-02T13:36:53.110Z,3.10
2023-04-02T13:39:21.117Z,2.40
2023-04-02T13:41:51.346Z,3.80
2023-04-02T13:44:25.419Z,4.20
2023-04-02T13:46:53.795Z,3.30
2023-04-02T13:49:21.501Z,5.80
2023-04-02T13:51:54.049Z,6.10
2023-04-02T13:54:29.712Z,6.90
2023-04-02T13:56:57.201Z,5.80
2023-04-02T13:59:24.443Z,9.00
2023-04-02T14:01:54.288Z,5.60
2023-04-02T14:04:25.397Z,8.30
2023-04-02T14:07:03.845Z,6.60
2023-04-02T14:09:39.300Z,5.30
2023-04-02T14:12:33.271Z,3.60
2023-04-02T14:15:29.197Z,5.30
2023-04-02T14:17:55.982Z,5.00
2023-04-02T14:20:42.180Z,3.30
2023-04-02T14:23:33.460Z,3.90
2023-04-02T14:26:12.900Z,4.90
2023-04-02T14:29:01.123Z,5.80
2023-04-02T14:31:44.983Z,4.10
2023-04-02T14:34:32.933Z,3.40
2023-04-02T14:37:21.405Z,3.60
2023-04-02T14:40:09.895Z,4.70
2023-04-02T14:43:01.318Z,7.70
2023-04-02T14:45:40.169Z,5.80
2023-04-02T14:48:18.967Z,4.10
2023-04-02T14:50:45.861Z,3.50
2023-04-02T14:53:26.780Z,4.60
2023-04-02T14:58:27.329Z,4.00
2023-04-02T15:01:02.494Z,4.60
2023-04-02T15:03:36.929Z,3.20
2023-04-02T15:06:11.216Z,3.60
2023-04-02T15:08:58.617Z,4.10
2023-04-02T15:11:29.139Z,5.00
2023-04-02T15:14:10.389Z,2.90
2023-04-02T15:16:37.127Z,3.40
2023-04-02T15:19:17.980Z,3.80
2023-04-02T15:22:04.730Z,4.20
2023-04-02T15:24:54.101Z,4.00
2023-04-02T15:28:02.938Z,4.40
2023-04-02T15:30:38.046Z,4.50
2023-04-02T15:33:44.369Z,5.50
2023-04-02T15:36:32.225Z,3.90
2023-04-02T15:39:36.298Z,3.60
2023-04-02T15:42:16.162Z,4.50
2023-04-02T15:45:00.849Z,4.00
2023-04-02T15:47:42.406Z,3.10
2023-04-02T15:50:42.806Z,3.80
2023-04-02T15:53:29.127Z,3.30
2023-04-02T15:55:58.756Z,4.50
2023-04-02T15:59:03.618Z,6.40
2023-04-02T16:02:19.256Z,3.70
2023-04-02T16:05:10.711Z,4.20
2023-04-02T16:07:55.645Z,3.90
2023-04-02T16:10:41.271Z,4.00
2023-04-02T16:13:23.675Z,4.20
2023-04-02T16:16:10.809Z,4.40
2023-04-02T16:18:54.525Z,6.00
2023-04-02T16:21:26.574Z,3.80
2023-04-02T16:23:53.319Z,4.50
2023-04-02T16:26:31.654Z,4.10
2023-04-02T16:29:23.916Z,3.20
2023-04-02T16:32:12.760Z,4.20
2023-04-02T16:35:24.856Z,5.10
2023-04-02T16:38:21.985Z,4.20
2023-04-02T16:41:07.027Z,3.90
2023-04-02T16:43:47.149Z,4.60
2023-04-02T16:46:38.928Z,5.50
2023-04-02T16:49:26.284Z,7.20
2023-04-02T16:51:59.004Z,4.20
2023-04-02T16:54:35.676Z,6.30
2023-04-02T16:57:23.727Z,8.20
2023-04-02T17:00:15.005Z,8.00
2023-04-02T17:03:03.425Z,7.10
2023-04-02T17:05:40.522Z,5.40
2023-04-02T17:08:13.253Z,6.30
2023-04-02T17:11:05.355Z,5.50
2023-04-02T17:13:52.608Z,5.40
2023-04-02T17:16:24.582Z,6.60
2023-04-02T17:18:57.345Z,5.20
2023-04-02T17:21:25.947Z,5.00
2023-04-02T17:24:17.129Z,5.60
2023-04-02T17:27:11.519Z,4.30
2023-04-02T17:29:42.784Z,5.40
2023-04-02T17:32:26.277Z,3.60
2023-04-02T17:34:53.141Z,4.00
2023-04-02T17:37:28.147Z,5.00
2023-04-02T17:40:06.197Z,3.20
2023-04-02T17:42:48.122Z,3.80
2023-04-02T17:45:37.434Z,3.30
2023-04-02T17:48:17.269Z,4.00
2023-04-02T17:51:05.889Z,3.40
2023-04-02T17:53:38.080Z,2.30
2023-04-02T17:56:10.399Z,2.20
2023-04-02T17:59:00.770Z,3.60
2023-04-02T18:01:36.757Z,1.60
2023-04-02T18:04:27.548Z,2.00
2023-04-02T18:06:57.186Z,1.80
2023-04-02T18:09:43.880Z,2.30
2023-04-02T18:12:29.365Z,3.30
2023-04-02T18:15:15.084Z,3.00
2023-04-02T18:17:50.183Z,4.50
2023-04-02T18:20:17.303Z,3.50
2023-04-02T18:23:19.439Z,3.30
2023-04-02T18:26:16.809Z,2.50
2023-04-02T18:29:05.953Z,2.20
2023-04-02T18:31:49.955Z,1.60
2023-04-02T18:34:31.618Z,1.80
2023-04-02T18:37:39.610Z,2.60
2023-04-02T18:40:21.561Z,3.00
2023-04-02T18:42:58.112Z,2.90
2023-04-02T18:45:45.310Z,3.30
2023-04-02T18:48:11.985Z,5.60
2023-04-02T18:50:40.300Z,3.40
2023-04-02T18:53:16.842Z,3.60
2023-04-02T18:55:53.599Z,3.30
2023-04-02T18:58:52.356Z,4.90
2023-04-02T19:04:32.238Z,5.60
2023-04-02T19:07:27.084Z,6.50
2023-04-02T19:09:59.601Z,5.40
2023-04-02T19:12:27.715Z,4.70
2023-04-02T19:14:58.370Z,4.50
2023-04-02T19:17:46.526Z,4.30
2023-04-02T19:20:28.112Z,5.50
2023-04-02T19:23:06.674Z,5.90
2023-04-02T19:25:56.065Z,5.10
2023-04-02T19:28:28.692Z,6.40
2023-04-02T19:31:01.612Z,4.30
2023-04-02T19:34:06.662Z,6.40
2023-04-02T19:36:41.642Z,3.60
2023-04-02T19:39:50.408Z,4.70
2023-04-02T19:42:20.433Z,4.50
2023-04-02T19:44:51.276Z,4.90
2023-04-02T19:49:45.279Z,6.20
2023-04-02T19:52:12.447Z,6.90
2023-04-02T19:54:39.210Z,8.10
2023-04-02T19:57:06.289Z,6.90
2023-04-02T19:59:33.137Z,8.90
2023-04-02T20:02:03.626Z,6.70
2023-04-02T20:04:30.481Z,7.60
2023-04-02T20:06:57.165Z,8.50
2023-04-02T20:09:23.942Z,8.40
2023-04-02T20:11:50.669Z,8.20
2023-04-02T20:14:17.394Z,12.00
2023-04-02T20:16:45.715Z,5.70
2023-04-02T20:19:12.628Z,7.40
2023-04-02T20:21:58.086Z,7.20
2023-04-02T20:24:24.980Z,10.70
2023-04-02T20:26:51.745Z,7.10
2023-04-02T20:29:18.488Z,7.80
2023-04-02T20:31:45.352Z,10.40
2023-04-02T20:34:12.353Z,11.30
2023-04-02T20:36:39.201Z,8.90
2023-04-02T20:39:08.503Z,9.60
2023-04-02T20:41:35.411Z,8.40
2023-04-02T20:44:02.458Z,8.40
2023-04-02T20:46:29.238Z,6.90
2023-04-02T20:48:55.983Z,9.10
2023-04-02T20:51:22.694Z,8.10
2023-04-02T20:53:49.414Z,7.50
2023-04-02T20:56:17.222Z,7.60
2023-04-02T20:58:44.213Z,6.50
2023-04-02T21:01:23.498Z,7.50
2023-04-02T21:03:57.874Z,6.20
2023-04-02T21:06:26.995Z,6.80
2023-04-02T21:08:53.827Z,6.70
2023-04-02T21:11:21.976Z,8.60
2023-04-02T21:13:49.082Z,7.80
2023-04-02T21:16:21.474Z,8.10
2023-04-02T21:18:50.850Z,7.10
2023-04-02T21:21:18.974Z,6.50
2023-04-02T21:23:45.927Z,7.40
2023-04-02T21:26:15.339Z,6.50
2023-04-02T21:28:43.774Z,5.30
2023-04-02T21:31:16.456Z,6.40
2023-04-02T21:33:45.933Z,5.40
2023-04-02T21:36:21.034Z,6.60
2023-04-02T21:38:50.211Z,6.50
2023-04-02T21:41:20.767Z,6.40
2023-04-02T21:43:48.521Z,6.80
2023-04-02T21:46:21.118Z,6.70
2023-04-02T21:48:49.526Z,6.10
2023-04-02T21:51:17.898Z,6.80
2023-04-02T21:53:45.648Z,6.90
2023-04-02T21:56:16.367Z,6.60
2023-04-02T21:58:44.818Z,7.30
2023-04-02T22:01:23.819Z,7.60
2023-04-02T22:03:54.171Z,6.50
2023-04-02T22:06:22.240Z,8.90
2023-04-02T22:09:00.503Z,7.80
2023-04-02T22:11:30.061Z,8.50
2023-04-02T22:13:57.612Z,7.70
2023-04-02T22:16:27.292Z,7.90
2023-04-02T22:18:55.990Z,6.00
2023-04-02T22:21:23.033Z,5.70
2023-04-02T22:23:49.835Z,9.10
2023-04-02T22:26:18.364Z,7.70
2023-04-02T22:31:32.599Z,7.00
2023-04-02T22:34:00.575Z,7.20
2023-04-02T22:36:28.822Z,9.90
2023-04-02T22:38:57.046Z,6.20
2023-04-02T22:41:26.907Z,6.50
2023-04-02T22:43:55.864Z,7.60
2023-04-02T22:46:23.625Z,7.80
2023-04-02T22:48:50.430Z,8.00
2023-04-02T22:51:19.337Z,8.00
2023-04-02T22:53:47.339Z,8.10
2023-04-02T22:56:19.654Z,8.90
2023-04-02T22:58:46.334Z,8.30
2023-04-02T23:01:18.836Z,9.40
2023-04-02T23:03:45.579Z,9.30
2023-04-02T23:06:15.866Z,10.80
2023-04-02T23:08:42.919Z,9.70
2023-04-02T23:11:15.838Z,10.20
2023-04-02T23:13:43.834Z,11.60
2023-04-02T23:16:14.688Z,10.00
2023-04-02T23:21:09.895Z,9.60
2023-04-02T23:23:37.343Z,10.90
2023-04-02T23:26:10.603Z,9.90
2023-04-02T23:28:38.870Z,9.00
2023-04-02T23:31:08.395Z,8.10
2023-04-02T23:33:35.579Z,9.80
2023-04-02T23:36:18.002Z,10.40
2023-04-02T23:38:44.818Z,10.00
2023-04-02T23:41:16.161Z,9.20
2023-04-02T23:43:42.946Z,10.60
2023-04-02T23:46:09.794Z,8.20
2023-04-02T23:48:36.542Z,7.90
2023-04-02T23:51:03.548Z,8.10
2023-04-02T23:53:30.277Z,11.70
2023-04-02T23:55:57.042Z,7.60
2023-04-02T23:58:23.756Z,7.50
